METAR Data
IDs: Format: Raw Decoded Include TAF

Data at: 1228 UTC 26 Feb 2021

LELO 261200Z 29004KT 230V350 9999 FEW035 14/08 Q1031